Time;durP1;ratioP1;P1;durP2;ratioP2;P2;SDS_P1;SDS_P2;PMS_P1;PMS_P2;Temp;Humidity;BMP_temperature;BMP_pressure;BME280_temperature;BME280_humidity;BME280_pressure;Samples;Min_cycle;Max_cycle;Signal;HPM_P1;HPM_P2
2021/06/16 00:00:28;;;;;;;10.02;8.45;;;;;;;;;;1497600;39;20067;-57
2021/06/16 00:01:30;;;;;;;14.10;9.40;;;;;;;;;;1497290;39;20379;-57
2021/06/16 00:02:31;;;;;;;11.93;8.73;;;;;;;;;;1497221;39;20132;-57
2021/06/16 00:03:33;;;;;;;13.82;9.48;;;;;;;;;;1497261;39;20382;-57
2021/06/16 00:04:34;;;;;;;13.52;8.65;;;;;;;;;;1497396;39;20024;-57
2021/06/16 00:05:36;;;;;;;12.02;8.35;;;;;;;;;;1497366;39;20034;-57
2021/06/16 00:06:37;;;;;;;13.35;9.05;;;;;;;;;;1497260;39;20027;-57
2021/06/16 00:07:39;;;;;;;13.50;9.00;;;;;;;;;;1497131;39;20112;-57
2021/06/16 00:08:40;;;;;;;10.82;8.73;;;;;;;;;;1496957;39;20412;-57
2021/06/16 00:09:41;;;;;;;14.75;8.90;;;;;;;;;;1492376;39;20035;-57
2021/06/16 00:10:42;;;;;;;14.40;8.90;;;;;;;;;;1492533;39;20028;-57
2021/06/16 00:11:45;;;;;;;14.52;9.27;;;;;;;;;;1497105;39;20023;-57
2021/06/16 00:12:46;;;;;;;14.15;9.15;;;;;;;;;;1497026;39;20030;-57
2021/06/16 00:13:48;;;;;;;12.68;8.63;;;;;;;;;;1497072;39;20031;-57
2021/06/16 00:14:49;;;;;;;14.30;9.38;;;;;;;;;;1497245;39;20027;-57
2021/06/16 00:15:52;;;;;;;13.23;9.52;;;;;;;;;;1497072;39;20299;-56
2021/06/16 00:16:52;;;;;;;14.43;8.95;;;;;;;;;;1497052;39;20019;-57
2021/06/16 00:17:54;;;;;;;12.02;8.70;;;;;;;;;;1497220;39;20036;-57
2021/06/16 00:18:55;;;;;;;14.98;9.10;;;;;;;;;;1496951;39;20307;-57
2021/06/16 00:19:57;;;;;;;13.70;9.30;;;;;;;;;;1497029;39;20024;-57
2021/06/16 00:20:58;;;;;;;15.55;9.18;;;;;;;;;;1496945;39;20023;-57
2021/06/16 00:22:00;;;;;;;10.90;8.85;;;;;;;;;;1497185;39;20371;-57
2021/06/16 00:23:02;;;;;;;15.30;9.50;;;;;;;;;;1497144;39;20032;-57
2021/06/16 00:24:05;;;;;;;12.88;9.18;;;;;;;;;;1497028;39;20067;-56
2021/06/16 00:25:07;;;;;;;14.65;9.57;;;;;;;;;;1497189;39;20031;-57
2021/06/16 00:26:09;;;;;;;13.23;9.18;;;;;;;;;;1496939;39;20043;-57
2021/06/16 00:27:12;;;;;;;11.95;9.10;;;;;;;;;;1497008;39;20394;-57
2021/06/16 00:28:13;;;;;;;11.73;9.27;;;;;;;;;;1497027;39;20188;-58
2021/06/16 00:29:15;;;;;;;13.25;9.23;;;;;;;;;;1497138;39;20039;-57
2021/06/16 00:30:18;;;;;;;14.82;9.35;;;;;;;;;;1497170;39;20031;-57
2021/06/16 00:31:19;;;;;;;12.88;8.90;;;;;;;;;;1496995;39;20027;-57
2021/06/16 00:32:21;;;;;;;15.80;8.98;;;;;;;;;;1497301;39;20333;-57
2021/06/16 00:33:37;;;;;;;14.85;8.73;;;;;;;;;;1497225;39;20111;-56
2021/06/16 00:34:39;;;;;;;14.07;9.00;;;;;;;;;;1497039;39;20040;-57
2021/06/16 00:35:40;;;;;;;12.70;8.70;;;;;;;;;;1497206;39;20027;-57
2021/06/16 00:36:42;;;;;;;11.77;9.07;;;;;;;;;;1496956;39;20380;-56
2021/06/16 00:37:43;;;;;;;10.63;8.80;;;;;;;;;;1496943;39;20387;-57
2021/06/16 00:38:45;;;;;;;13.30;8.95;;;;;;;;;;1496946;39;20032;-57
2021/06/16 00:39:46;;;;;;;12.38;8.70;;;;;;;;;;1497099;39;20031;-57
2021/06/16 00:40:48;;;;;;;13.63;8.68;;;;;;;;;;1497144;39;20028;-57
2021/06/16 00:41:49;;;;;;;10.45;8.02;;;;;;;;;;1496940;39;20399;-57
2021/06/16 00:42:52;;;;;;;12.75;8.77;;;;;;;;;;1497196;39;20027;-59
2021/06/16 00:43:53;;;;;;;14.40;8.70;;;;;;;;;;1496984;39;20333;-57
2021/06/16 00:44:55;;;;;;;14.18;8.82;;;;;;;;;;1496971;39;20058;-57
2021/06/16 00:45:56;;;;;;;12.55;8.60;;;;;;;;;;1497205;39;20027;-57
2021/06/16 00:46:58;;;;;;;10.90;8.55;;;;;;;;;;1497008;39;20037;-57
2021/06/16 00:48:00;;;;;;;14.75;8.68;;;;;;;;;;1497072;39;20028;-57
2021/06/16 00:49:01;;;;;;;11.30;8.38;;;;;;;;;;1497056;39;20053;-57
2021/06/16 00:50:05;;;;;;;11.02;8.43;;;;;;;;;;1497047;39;20023;-57
2021/06/16 00:51:07;;;;;;;13.00;8.60;;;;;;;;;;1496983;39;20384;-57
2021/06/16 00:52:08;;;;;;;14.07;9.15;;;;;;;;;;1497211;39;20024;-57
2021/06/16 00:53:10;;;;;;;11.43;8.27;;;;;;;;;;1497323;39;20039;-57
2021/06/16 00:54:11;;;;;;;14.50;8.82;;;;;;;;;;1497160;39;20027;-57
2021/06/16 00:55:13;;;;;;;12.15;8.57;;;;;;;;;;1497102;39;20031;-57
2021/06/16 00:56:15;;;;;;;11.52;8.77;;;;;;;;;;1497042;39;20038;-57
2021/06/16 00:57:17;;;;;;;13.65;8.32;;;;;;;;;;1497265;39;20027;-57
2021/06/16 00:58:20;;;;;;;12.23;8.73;;;;;;;;;;1497137;39;20035;-57
2021/06/16 00:59:21;;;;;;;11.85;8.48;;;;;;;;;;1497018;39;20047;-57
2021/06/16 01:00:27;;;;;;;11.50;8.07;;;;;;;;;;1497207;39;20023;-57
2021/06/16 01:01:30;;;;;;;11.15;8.07;;;;;;;;;;1496740;39;20068;-57
2021/06/16 01:02:34;;;;;;;13.18;8.50;;;;;;;;;;1497177;39;20036;-56
2021/06/16 01:03:44;;;;;;;13.27;8.82;;;;;;;;;;1496944;39;20095;-57
2021/06/16 01:04:47;;;;;;;13.32;8.40;;;;;;;;;;1497170;39;20035;-57
2021/06/16 01:05:53;;;;;;;10.90;8.75;;;;;;;;;;1496991;39;20032;-57
2021/06/16 01:06:58;;;;;;;12.48;8.20;;;;;;;;;;1496985;39;20478;-57
2021/06/16 01:08:02;;;;;;;9.63;7.88;;;;;;;;;;1494304;39;109199;-57
2021/06/16 01:09:10;;;;;;;13.80;8.50;;;;;;;;;;1497178;39;20427;-57
2021/06/16 01:10:14;;;;;;;13.75;9.32;;;;;;;;;;1497389;39;20027;-57
2021/06/16 01:11:17;;;;;;;13.05;8.80;;;;;;;;;;1497054;39;20294;-57
2021/06/16 01:12:23;;;;;;;11.00;8.20;;;;;;;;;;1497273;39;20027;-57
2021/06/16 01:13:32;;;;;;;14.65;8.95;;;;;;;;;;1497363;39;20119;-57
2021/06/16 01:14:36;;;;;;;12.55;8.50;;;;;;;;;;1497028;39;20031;-57
2021/06/16 01:15:45;;;;;;;11.88;8.52;;;;;;;;;;1497382;39;20031;-57
2021/06/16 01:16:54;;;;;;;12.68;8.63;;;;;;;;;;1497323;39;20031;-57
2021/06/16 01:17:59;;;;;;;9.88;8.15;;;;;;;;;;1497269;39;20023;-57
2021/06/16 01:19:11;;;;;;;12.75;8.30;;;;;;;;;;1496986;39;20030;-57
2021/06/16 01:20:28;;;;;;;11.95;9.05;;;;;;;;;;1497090;39;20027;-59
2021/06/16 01:21:31;;;;;;;11.90;7.90;;;;;;;;;;1497069;39;20315;-57
2021/06/16 01:22:39;;;;;;;12.00;8.05;;;;;;;;;;1497041;39;20031;-57
2021/06/16 01:23:52;;;;;;;10.15;7.80;;;;;;;;;;1497047;39;20028;-57
2021/06/16 01:24:56;;;;;;;11.70;7.93;;;;;;;;;;1497050;39;20028;-57
2021/06/16 01:26:18;;;;;;;12.32;8.32;;;;;;;;;;1497376;39;20038;-59
2021/06/16 01:27:23;;;;;;;12.40;8.23;;;;;;;;;;1497181;39;20028;-57
2021/06/16 01:28:27;;;;;;;13.60;8.65;;;;;;;;;;1497038;39;20089;-57
2021/06/16 01:29:31;;;;;;;12.25;8.43;;;;;;;;;;1497249;39;20028;-57
2021/06/16 01:30:32;;;;;;;14.05;8.80;;;;;;;;;;1497024;39;20031;-57
2021/06/16 01:31:34;;;;;;;12.38;8.70;;;;;;;;;;1497063;39;20027;-57
2021/06/16 01:32:36;;;;;;;11.45;8.15;;;;;;;;;;1497239;39;20027;-57
2021/06/16 01:33:39;;;;;;;11.00;8.52;;;;;;;;;;1497039;39;20039;-57
2021/06/16 01:34:41;;;;;;;12.10;8.88;;;;;;;;;;1497212;39;20030;-57
2021/06/16 01:35:47;;;;;;;14.73;8.52;;;;;;;;;;1497065;39;20019;-57
2021/06/16 01:36:50;;;;;;;10.85;8.20;;;;;;;;;;1497079;39;20128;-57
2021/06/16 01:37:51;;;;;;;13.45;8.52;;;;;;;;;;1496993;39;20387;-57
2021/06/16 01:38:54;;;;;;;11.25;8.32;;;;;;;;;;1497230;39;20035;-57
2021/06/16 01:39:57;;;;;;;12.13;9.05;;;;;;;;;;1497052;39;20023;-57
2021/06/16 01:41:01;;;;;;;14.38;8.32;;;;;;;;;;1497154;39;20031;-57
2021/06/16 01:42:08;;;;;;;10.65;8.40;;;;;;;;;;1497193;39;20023;-57
2021/06/16 01:43:10;;;;;;;10.25;7.93;;;;;;;;;;1497134;39;20028;-57
2021/06/16 01:44:14;;;;;;;11.98;8.10;;;;;;;;;;1497031;39;20043;-57
2021/06/16 01:45:16;;;;;;;12.13;7.95;;;;;;;;;;1496965;39;20027;-57
2021/06/16 01:46:22;;;;;;;11.48;8.15;;;;;;;;;;1497263;39;20034;-57
2021/06/16 01:47:23;;;;;;;11.52;8.23;;;;;;;;;;1497230;39;20028;-57
2021/06/16 01:48:26;;;;;;;12.32;8.07;;;;;;;;;;1496957;39;20314;-57
2021/06/16 01:49:28;;;;;;;12.10;8.45;;;;;;;;;;1497306;39;20034;-57
2021/06/16 01:50:31;;;;;;;11.68;8.50;;;;;;;;;;1497358;39;20038;-59
2021/06/16 01:51:32;;;;;;;12.10;8.57;;;;;;;;;;1496911;39;20046;-59
2021/06/16 01:52:36;;;;;;;14.18;8.55;;;;;;;;;;1496889;39;20050;-59
2021/06/16 01:53:38;;;;;;;10.55;7.97;;;;;;;;;;1497296;39;20027;-59
2021/06/16 01:54:41;;;;;;;14.35;8.32;;;;;;;;;;1497185;39;20043;-59
2021/06/16 01:55:42;;;;;;;12.02;8.43;;;;;;;;;;1496889;39;20382;-60
2021/06/16 01:56:45;;;;;;;12.50;8.73;;;;;;;;;;1497206;39;20031;-59
2021/06/16 01:57:53;;;;;;;9.65;7.97;;;;;;;;;;1497200;39;20027;-59
2021/06/16 01:58:57;;;;;;;13.70;8.52;;;;;;;;;;1497122;39;20070;-59
2021/06/16 02:00:00;;;;;;;12.00;8.88;;;;;;;;;;1497053;39;20031;-59
2021/06/16 02:01:02;;;;;;;11.30;8.25;;;;;;;;;;1497191;39;20039;-60
2021/06/16 02:02:04;;;;;;;12.25;8.23;;;;;;;;;;1497017;39;20398;-59
2021/06/16 02:03:06;;;;;;;10.55;8.20;;;;;;;;;;1497106;39;20024;-59
2021/06/16 02:04:08;;;;;;;12.27;8.75;;;;;;;;;;1496991;39;20023;-59
2021/06/16 02:05:11;;;;;;;11.68;8.43;;;;;;;;;;1497154;39;20031;-60
2021/06/16 02:06:15;;;;;;;16.40;8.85;;;;;;;;;;1496945;39;20363;-59
2021/06/16 02:07:21;;;;;;;14.13;8.88;;;;;;;;;;1496856;39;20303;-59
2021/06/16 02:08:26;;;;;;;12.65;8.05;;;;;;;;;;1497080;39;20050;-59
2021/06/16 02:09:28;;;;;;;12.82;9.27;;;;;;;;;;1496970;39;20031;-59
2021/06/16 02:10:32;;;;;;;10.93;8.65;;;;;;;;;;1497101;39;20023;-59
2021/06/16 02:11:39;;;;;;;12.45;8.55;;;;;;;;;;1496931;39;20032;-59
2021/06/16 02:12:42;;;;;;;10.80;8.23;;;;;;;;;;1496910;39;20351;-59
2021/06/16 02:13:48;;;;;;;11.43;8.40;;;;;;;;;;1497227;39;20298;-59
2021/06/16 02:14:55;;;;;;;14.50;8.85;;;;;;;;;;1497837;39;20028;-59
2021/06/16 02:16:02;;;;;;;10.98;8.48;;;;;;;;;;1497683;39;20019;-59
2021/06/16 02:17:08;;;;;;;12.48;7.93;;;;;;;;;;1497553;39;20306;-59
2021/06/16 02:18:11;;;;;;;10.50;7.90;;;;;;;;;;1497542;39;20035;-59
2021/06/16 02:19:16;;;;;;;13.38;8.57;;;;;;;;;;1497469;39;20027;-59
2021/06/16 02:20:20;;;;;;;11.57;8.43;;;;;;;;;;1497721;39;20031;-59
2021/06/16 02:21:21;;;;;;;11.00;8.30;;;;;;;;;;1497471;39;20034;-59
2021/06/16 02:22:26;;;;;;;11.35;8.35;;;;;;;;;;1497693;39;20043;-59
2021/06/16 02:23:28;;;;;;;11.45;8.27;;;;;;;;;;1497666;39;20071;-59
2021/06/16 02:24:30;;;;;;;11.68;8.35;;;;;;;;;;1497526;39;20039;-59
2021/06/16 02:25:33;;;;;;;11.32;8.30;;;;;;;;;;1497419;39;20024;-59
2021/06/16 02:26:36;;;;;;;11.13;8.57;;;;;;;;;;1497501;39;20027;-59
2021/06/16 02:27:37;;;;;;;12.77;8.43;;;;;;;;;;1497678;39;20028;-59
2021/06/16 02:28:39;;;;;;;10.32;8.00;;;;;;;;;;1497437;39;20039;-59
2021/06/16 02:29:41;;;;;;;12.25;8.10;;;;;;;;;;1497716;39;20124;-59
2021/06/16 02:30:43;;;;;;;11.70;8.80;;;;;;;;;;1497385;39;20287;-59
2021/06/16 02:31:45;;;;;;;12.68;8.55;;;;;;;;;;1497814;39;20141;-59
2021/06/16 02:32:46;;;;;;;10.40;7.97;;;;;;;;;;1497780;39;20054;-59
2021/06/16 02:33:50;;;;;;;11.50;8.60;;;;;;;;;;1497536;39;20407;-59
2021/06/16 02:34:51;;;;;;;11.70;8.43;;;;;;;;;;1497627;39;20038;-59
2021/06/16 02:35:53;;;;;;;11.85;8.13;;;;;;;;;;1497754;39;20426;-59
2021/06/16 02:36:59;;;;;;;12.75;8.18;;;;;;;;;;1497484;39;20406;-59
2021/06/16 02:38:08;;;;;;;11.98;8.13;;;;;;;;;;1497691;39;20035;-60
2021/06/16 02:39:12;;;;;;;11.02;8.65;;;;;;;;;;1497463;39;20067;-59
2021/06/16 02:40:17;;;;;;;11.98;8.07;;;;;;;;;;1497532;39;20081;-59
2021/06/16 02:41:18;;;;;;;9.75;7.95;;;;;;;;;;1497522;39;20314;-59
2021/06/16 02:42:22;;;;;;;14.27;8.20;;;;;;;;;;1497609;39;20263;-59
2021/06/16 02:43:23;;;;;;;12.88;8.07;;;;;;;;;;1497627;39;20034;-59
2021/06/16 02:44:27;;;;;;;12.20;8.18;;;;;;;;;;1497562;39;20280;-59
2021/06/16 02:45:28;;;;;;;10.00;7.38;;;;;;;;;;1497562;39;20040;-59
2021/06/16 02:46:34;;;;;;;12.45;8.48;;;;;;;;;;1497523;39;20406;-59
2021/06/16 02:47:39;;;;;;;9.95;7.55;;;;;;;;;;1497507;39;20042;-59
2021/06/16 02:48:44;;;;;;;12.70;8.32;;;;;;;;;;1497578;39;20035;-59
2021/06/16 02:49:48;;;;;;;10.15;7.63;;;;;;;;;;1492804;39;20031;-59
2021/06/16 02:50:52;;;;;;;11.63;8.05;;;;;;;;;;1492979;39;20024;-59
2021/06/16 02:51:53;;;;;;;13.40;7.97;;;;;;;;;;1497642;39;20023;-59
2021/06/16 02:52:56;;;;;;;11.82;8.68;;;;;;;;;;1497454;39;20391;-59
2021/06/16 02:53:57;;;;;;;9.98;7.65;;;;;;;;;;1497385;39;20027;-60
2021/06/16 02:55:02;;;;;;;13.07;8.50;;;;;;;;;;1497461;39;20035;-59
2021/06/16 02:56:05;;;;;;;13.43;8.98;;;;;;;;;;1497454;39;20394;-59
2021/06/16 02:57:08;;;;;;;11.05;7.93;;;;;;;;;;1497443;39;20379;-59
2021/06/16 02:58:09;;;;;;;11.80;7.82;;;;;;;;;;1497534;39;20035;-59
2021/06/16 02:59:12;;;;;;;12.82;8.32;;;;;;;;;;1497563;39;20047;-59
2021/06/16 03:00:15;;;;;;;12.07;8.48;;;;;;;;;;1497601;39;20038;-60
2021/06/16 03:01:18;;;;;;;12.57;7.80;;;;;;;;;;1497567;39;20024;-59
2021/06/16 03:02:24;;;;;;;15.77;8.38;;;;;;;;;;1497403;39;20295;-59
2021/06/16 03:03:27;;;;;;;10.57;7.40;;;;;;;;;;1497692;39;20032;-59
2021/06/16 03:04:29;;;;;;;13.10;8.20;;;;;;;;;;1497537;39;20027;-59
2021/06/16 03:05:32;;;;;;;11.18;8.05;;;;;;;;;;1497598;39;20107;-60
2021/06/16 03:06:33;;;;;;;11.40;8.02;;;;;;;;;;1497616;39;20034;-59
2021/06/16 03:07:36;;;;;;;11.88;8.30;;;;;;;;;;1497351;39;20387;-62
2021/06/16 03:08:39;;;;;;;13.48;8.27;;;;;;;;;;1497312;39;20395;-59
2021/06/16 03:09:42;;;;;;;13.55;8.10;;;;;;;;;;1497419;39;20395;-59
2021/06/16 03:10:43;;;;;;;12.77;8.25;;;;;;;;;;1497573;39;20019;-59
2021/06/16 03:11:45;;;;;;;9.93;8.07;;;;;;;;;;1497473;39;20266;-59
2021/06/16 03:12:48;;;;;;;11.75;7.97;;;;;;;;;;1497371;39;20325;-59
2021/06/16 03:13:51;;;;;;;11.13;8.45;;;;;;;;;;1497479;39;20058;-59
2021/06/16 03:14:52;;;;;;;13.27;8.20;;;;;;;;;;1497414;39;20379;-59
2021/06/16 03:15:54;;;;;;;11.55;7.85;;;;;;;;;;1497800;39;20028;-59
2021/06/16 03:16:58;;;;;;;12.65;7.80;;;;;;;;;;1497641;39;20103;-59
2021/06/16 03:18:01;;;;;;;11.52;8.18;;;;;;;;;;1497353;39;20035;-59
2021/06/16 03:19:04;;;;;;;11.02;8.10;;;;;;;;;;1497399;39;20405;-59
2021/06/16 03:20:08;;;;;;;10.15;7.82;;;;;;;;;;1497600;39;20104;-60
2021/06/16 03:21:10;;;;;;;12.02;7.93;;;;;;;;;;1497354;39;20030;-59
2021/06/16 03:22:12;;;;;;;10.98;8.10;;;;;;;;;;1497605;39;20056;-59
2021/06/16 03:23:14;;;;;;;10.07;7.68;;;;;;;;;;1497565;39;20045;-59
2021/06/16 03:24:18;;;;;;;11.32;7.55;;;;;;;;;;1497328;39;20383;-59
2021/06/16 03:25:20;;;;;;;10.68;7.70;;;;;;;;;;1497383;39;20306;-59
2021/06/16 03:26:26;;;;;;;11.05;7.72;;;;;;;;;;1497448;39;20071;-59
2021/06/16 03:27:27;;;;;;;16.15;8.27;;;;;;;;;;1497393;39;20023;-59
2021/06/16 03:28:30;;;;;;;12.50;7.95;;;;;;;;;;1497412;39;20307;-59
2021/06/16 03:29:33;;;;;;;11.43;7.72;;;;;;;;;;1497390;39;20299;-60
2021/06/16 03:30:36;;;;;;;11.63;8.02;;;;;;;;;;1497401;39;20410;-59
2021/06/16 03:31:39;;;;;;;9.90;7.57;;;;;;;;;;1497235;39;20028;-59
2021/06/16 03:32:42;;;;;;;11.90;7.53;;;;;;;;;;1497367;39;20035;-59
2021/06/16 03:33:45;;;;;;;13.80;8.25;;;;;;;;;;1497314;39;20019;-59
2021/06/16 03:34:47;;;;;;;10.95;7.72;;;;;;;;;;1497395;39;20392;-59
2021/06/16 03:35:49;;;;;;;15.68;8.50;;;;;;;;;;1497491;39;20040;-59
2021/06/16 03:36:53;;;;;;;9.88;7.45;;;;;;;;;;1497362;39;20035;-59
2021/06/16 03:37:55;;;;;;;11.45;7.53;;;;;;;;;;1497437;39;20027;-59
2021/06/16 03:38:57;;;;;;;9.48;7.50;;;;;;;;;;1497573;39;20030;-59
2021/06/16 03:39:59;;;;;;;16.13;7.82;;;;;;;;;;1497382;39;20504;-59
2021/06/16 03:41:02;;;;;;;11.40;7.93;;;;;;;;;;1497273;39;20390;-59
2021/06/16 03:42:04;;;;;;;13.90;8.18;;;;;;;;;;1497472;39;20101;-59
2021/06/16 03:43:06;;;;;;;11.35;8.05;;;;;;;;;;1497678;39;20031;-59
2021/06/16 03:44:08;;;;;;;10.18;7.63;;;;;;;;;;1497492;39;20030;-59
2021/06/16 03:45:11;;;;;;;11.90;8.02;;;;;;;;;;1497304;39;20310;-59
2021/06/16 03:46:12;;;;;;;10.93;7.65;;;;;;;;;;1497528;39;20028;-59
2021/06/16 03:47:16;;;;;;;9.80;7.50;;;;;;;;;;1497478;39;20031;-59
2021/06/16 03:48:20;;;;;;;11.93;8.30;;;;;;;;;;1497216;39;20394;-59
2021/06/16 03:49:24;;;;;;;10.82;7.57;;;;;;;;;;1497499;39;20088;-59
2021/06/16 03:50:26;;;;;;;10.45;8.05;;;;;;;;;;1497301;39;20028;-59
2021/06/16 03:51:28;;;;;;;11.57;7.43;;;;;;;;;;1497176;39;20387;-59
2021/06/16 03:52:30;;;;;;;11.40;8.40;;;;;;;;;;1497233;39;20036;-59
2021/06/16 03:53:33;;;;;;;10.48;7.82;;;;;;;;;;1497379;39;20034;-59
2021/06/16 03:54:35;;;;;;;10.10;7.80;;;;;;;;;;1497306;39;20024;-59
2021/06/16 03:55:38;;;;;;;12.40;7.13;;;;;;;;;;1497569;39;20031;-59
2021/06/16 03:56:41;;;;;;;10.43;7.45;;;;;;;;;;1497272;39;20034;-59
2021/06/16 03:57:43;;;;;;;10.32;7.00;;;;;;;;;;1497594;39;20027;-59
2021/06/16 03:58:44;;;;;;;11.40;7.32;;;;;;;;;;1497208;39;20035;-59
2021/06/16 03:59:47;;;;;;;11.75;7.57;;;;;;;;;;1497394;39;20093;-59
2021/06/16 04:00:48;;;;;;;8.77;7.25;;;;;;;;;;1497399;39;20028;-59
2021/06/16 04:01:50;;;;;;;10.27;7.00;;;;;;;;;;1497603;39;20409;-59
2021/06/16 04:02:52;;;;;;;10.90;7.05;;;;;;;;;;1497267;39;20027;-59
2021/06/16 04:03:55;;;;;;;9.73;7.10;;;;;;;;;;1497469;39;20068;-59
2021/06/16 04:05:00;;;;;;;11.48;7.88;;;;;;;;;;1497358;39;20028;-59
2021/06/16 04:06:02;;;;;;;9.35;7.55;;;;;;;;;;1497484;39;20137;-59
2021/06/16 04:07:05;;;;;;;10.18;7.35;;;;;;;;;;1497272;39;20067;-59
2021/06/16 04:08:08;;;;;;;9.75;7.63;;;;;;;;;;1497203;39;20514;-59
2021/06/16 04:09:10;;;;;;;10.25;7.50;;;;;;;;;;1497459;39;20104;-59
2021/06/16 04:10:12;;;;;;;10.60;7.35;;;;;;;;;;1497239;39;20028;-59
2021/06/16 04:11:14;;;;;;;13.30;7.60;;;;;;;;;;1497438;39;20041;-59
2021/06/16 04:12:16;;;;;;;9.02;7.18;;;;;;;;;;1497369;39;20280;-59
2021/06/16 04:13:17;;;;;;;10.27;7.47;;;;;;;;;;1497195;39;20311;-59
2021/06/16 04:14:21;;;;;;;10.77;7.47;;;;;;;;;;1497182;39;20057;-59
2021/06/16 04:15:22;;;;;;;11.65;7.32;;;;;;;;;;1497178;39;20027;-59
2021/06/16 04:16:25;;;;;;;9.57;7.75;;;;;;;;;;1497378;39;20024;-59
2021/06/16 04:17:26;;;;;;;10.70;6.88;;;;;;;;;;1497285;39;20303;-59
2021/06/16 04:18:30;;;;;;;9.18;7.20;;;;;;;;;;1492530;39;20043;-59
2021/06/16 04:19:31;;;;;;;11.63;7.22;;;;;;;;;;1492907;39;20035;-59
2021/06/16 04:20:34;;;;;;;12.45;7.88;;;;;;;;;;1497287;39;20410;-59
2021/06/16 04:21:35;;;;;;;9.30;6.80;;;;;;;;;;1497208;39;20306;-59
2021/06/16 04:22:37;;;;;;;11.38;7.10;;;;;;;;;;1497206;39;20027;-59
2021/06/16 04:23:38;;;;;;;7.93;6.80;;;;;;;;;;1497189;39;20054;-59
2021/06/16 04:24:39;;;;;;;12.57;7.30;;;;;;;;;;1497486;39;20383;-59
2021/06/16 04:25:41;;;;;;;9.25;7.28;;;;;;;;;;1497317;39;20039;-59
2021/06/16 04:26:42;;;;;;;10.48;7.53;;;;;;;;;;1497217;39;20302;-59
2021/06/16 04:27:43;;;;;;;10.35;7.88;;;;;;;;;;1497335;39;20441;-59
2021/06/16 04:28:45;;;;;;;10.50;7.15;;;;;;;;;;1497339;39;20031;-60
2021/06/16 04:29:46;;;;;;;10.43;7.22;;;;;;;;;;1497316;39;20030;-59
2021/06/16 04:30:48;;;;;;;11.10;7.43;;;;;;;;;;1497519;39;20027;-59
2021/06/16 04:31:49;;;;;;;11.35;7.30;;;;;;;;;;1497386;39;20030;-59
2021/06/16 04:32:51;;;;;;;10.10;7.15;;;;;;;;;;1497476;39;20096;-59
2021/06/16 04:33:52;;;;;;;8.95;6.95;;;;;;;;;;1497154;39;20382;-59
2021/06/16 04:34:54;;;;;;;10.98;7.68;;;;;;;;;;1497317;39;20031;-60
2021/06/16 04:35:56;;;;;;;11.52;7.95;;;;;;;;;;1497194;39;20028;-60
2021/06/16 04:36:58;;;;;;;9.77;7.25;;;;;;;;;;1496939;39;20027;-59
2021/06/16 04:37:59;;;;;;;9.55;7.15;;;;;;;;;;1497254;39;20027;-59
2021/06/16 04:39:01;;;;;;;11.63;6.82;;;;;;;;;;1497173;39;20307;-59
2021/06/16 04:40:04;;;;;;;10.25;7.18;;;;;;;;;;1497232;39;20353;-59
2021/06/16 04:41:06;;;;;;;9.27;7.50;;;;;;;;;;1497142;39;20031;-59
2021/06/16 04:42:07;;;;;;;9.68;7.05;;;;;;;;;;1497134;39;20028;-59
2021/06/16 04:43:09;;;;;;;8.10;6.82;;;;;;;;;;1497192;39;20039;-60
2021/06/16 04:44:10;;;;;;;9.80;7.32;;;;;;;;;;1497423;39;20027;-59
2021/06/16 04:45:14;;;;;;;11.43;7.55;;;;;;;;;;1497234;39;20039;-59
2021/06/16 04:46:15;;;;;;;8.52;6.60;;;;;;;;;;1497085;39;20031;-59
2021/06/16 04:47:17;;;;;;;10.52;7.15;;;;;;;;;;1497169;39;20027;-59
2021/06/16 04:48:18;;;;;;;10.73;7.10;;;;;;;;;;1497145;39;20036;-59
2021/06/16 04:49:21;;;;;;;11.40;6.82;;;;;;;;;;1497360;39;20039;-60
2021/06/16 04:50:22;;;;;;;8.50;6.97;;;;;;;;;;1497312;39;20041;-60
2021/06/16 04:51:26;;;;;;;8.40;6.45;;;;;;;;;;1497066;39;20383;-60
2021/06/16 04:52:26;;;;;;;11.90;6.50;;;;;;;;;;1497115;39;20397;-61
2021/06/16 04:53:28;;;;;;;10.73;6.97;;;;;;;;;;1497149;39;20023;-59
2021/06/16 04:54:29;;;;;;;10.35;7.40;;;;;;;;;;1497119;39;20037;-59
2021/06/16 04:55:31;;;;;;;11.48;7.75;;;;;;;;;;1497178;39;20108;-61
2021/06/16 04:56:32;;;;;;;9.77;7.03;;;;;;;;;;1497037;39;20027;-61
2021/06/16 04:57:35;;;;;;;11.82;7.72;;;;;;;;;;1497316;39;20035;-61
2021/06/16 04:58:36;;;;;;;10.52;7.45;;;;;;;;;;1497295;39;20031;-60
2021/06/16 04:59:38;;;;;;;10.43;6.85;;;;;;;;;;1497293;39;20064;-59
2021/06/16 05:00:39;;;;;;;10.88;6.70;;;;;;;;;;1497349;39;20027;-60
2021/06/16 05:01:41;;;;;;;11.48;7.70;;;;;;;;;;1497123;39;20406;-61
2021/06/16 05:02:42;;;;;;;10.27;7.43;;;;;;;;;;1497342;39;20027;-59
2021/06/16 05:03:45;;;;;;;8.68;6.97;;;;;;;;;;1497199;39;20034;-60
2021/06/16 05:04:46;;;;;;;8.95;7.32;;;;;;;;;;1492458;39;20032;-59
2021/06/16 05:05:47;;;;;;;9.45;7.00;;;;;;;;;;1492643;39;20028;-59
2021/06/16 05:06:50;;;;;;;8.20;6.80;;;;;;;;;;1497388;39;20023;-59
2021/06/16 05:07:51;;;;;;;11.98;7.07;;;;;;;;;;1497148;39;20394;-59
2021/06/16 05:08:52;;;;;;;12.15;7.22;;;;;;;;;;1497069;39;20024;-61
2021/06/16 05:09:54;;;;;;;10.18;7.55;;;;;;;;;;1497191;39;20038;-59
2021/06/16 05:10:55;;;;;;;15.52;6.80;;;;;;;;;;1492373;39;20302;-61
2021/06/16 05:11:57;;;;;;;9.55;7.03;;;;;;;;;;1492366;39;20034;-59
2021/06/16 05:12:58;;;;;;;9.55;6.82;;;;;;;;;;1497069;39;20407;-60
2021/06/16 05:13:59;;;;;;;10.35;6.60;;;;;;;;;;1497204;39;20031;-61
2021/06/16 05:15:00;;;;;;;9.45;6.68;;;;;;;;;;1497292;39;20030;-60
2021/06/16 05:16:02;;;;;;;8.43;6.55;;;;;;;;;;1497070;39;20402;-60
2021/06/16 05:17:03;;;;;;;11.80;6.68;;;;;;;;;;1497029;39;20038;-60
2021/06/16 05:18:08;;;;;;;9.75;7.40;;;;;;;;;;1497033;39;20263;-60
2021/06/16 05:19:16;;;;;;;11.73;7.18;;;;;;;;;;1497325;39;20104;-60
2021/06/16 05:20:18;;;;;;;11.43;6.93;;;;;;;;;;1497128;39;20035;-59
2021/06/16 05:21:19;;;;;;;10.57;6.97;;;;;;;;;;1497219;39;20023;-59
2021/06/16 05:22:22;;;;;;;8.98;6.90;;;;;;;;;;1497394;39;20101;-60
2021/06/16 05:23:26;;;;;;;12.70;7.60;;;;;;;;;;1497189;39;20023;-60
2021/06/16 05:24:28;;;;;;;8.75;6.25;;;;;;;;;;1497145;39;20027;-60
2021/06/16 05:25:29;;;;;;;9.30;6.63;;;;;;;;;;1497428;39;20031;-60
2021/06/16 05:26:31;;;;;;;9.77;6.60;;;;;;;;;;1497189;39;20027;-59
2021/06/16 05:27:32;;;;;;;9.27;6.68;;;;;;;;;;1497047;39;20027;-59
2021/06/16 05:28:34;;;;;;;12.50;7.25;;;;;;;;;;1497120;39;20055;-59
2021/06/16 05:29:35;;;;;;;10.45;6.72;;;;;;;;;;1496981;39;20405;-59
2021/06/16 05:30:37;;;;;;;11.60;7.07;;;;;;;;;;1497091;39;20031;-59
2021/06/16 05:31:38;;;;;;;9.55;6.45;;;;;;;;;;1497198;39;20038;-59
2021/06/16 05:32:40;;;;;;;9.80;7.13;;;;;;;;;;1497039;39;20023;-59
2021/06/16 05:33:41;;;;;;;10.35;6.55;;;;;;;;;;1497151;39;20141;-59
2021/06/16 05:34:43;;;;;;;10.73;6.70;;;;;;;;;;1497098;39;20352;-59
2021/06/16 05:35:44;;;;;;;8.15;6.80;;;;;;;;;;1497155;39;20034;-60
2021/06/16 05:36:45;;;;;;;10.15;7.20;;;;;;;;;;1497345;39;20054;-59
2021/06/16 05:37:48;;;;;;;10.15;6.88;;;;;;;;;;1497164;39;20038;-59
2021/06/16 05:38:50;;;;;;;7.30;6.15;;;;;;;;;;1497012;39;20023;-59
2021/06/16 05:39:51;;;;;;;8.90;6.95;;;;;;;;;;1497164;39;20032;-61
2021/06/16 05:40:53;;;;;;;11.60;6.90;;;;;;;;;;1497124;39;20023;-59
2021/06/16 05:41:53;;;;;;;9.90;6.85;;;;;;;;;;1497190;39;20027;-59
2021/06/16 05:42:55;;;;;;;9.35;6.32;;;;;;;;;;1497200;39;20039;-61
2021/06/16 05:43:56;;;;;;;10.60;6.85;;;;;;;;;;1497205;39;20027;-60
2021/06/16 05:44:58;;;;;;;10.30;6.38;;;;;;;;;;1497294;39;20054;-60
2021/06/16 05:46:01;;;;;;;8.85;6.65;;;;;;;;;;1496970;39;20027;-59
2021/06/16 05:47:04;;;;;;;8.15;6.22;;;;;;;;;;1497087;39;20294;-59
2021/06/16 05:48:05;;;;;;;9.13;6.50;;;;;;;;;;1497000;39;20038;-60
2021/06/16 05:49:07;;;;;;;11.27;6.78;;;;;;;;;;1497103;39;20039;-61
2021/06/16 05:50:09;;;;;;;14.27;6.47;;;;;;;;;;1497158;39;20024;-61
2021/06/16 05:51:11;;;;;;;9.43;6.50;;;;;;;;;;1497097;39;20035;-61
2021/06/16 05:52:12;;;;;;;8.25;6.13;;;;;;;;;;1496903;39;20023;-59
2021/06/16 05:53:15;;;;;;;8.68;6.35;;;;;;;;;;1497069;39;20023;-61
2021/06/16 05:54:16;;;;;;;7.50;6.00;;;;;;;;;;1497125;39;20031;-61
2021/06/16 05:55:18;;;;;;;9.70;6.60;;;;;;;;;;1497041;39;20327;-60
2021/06/16 05:56:19;;;;;;;11.98;6.47;;;;;;;;;;1496914;39;20442;-60
2021/06/16 05:57:21;;;;;;;9.48;6.45;;;;;;;;;;1497272;39;20055;-60
2021/06/16 05:58:22;;;;;;;9.40;6.40;;;;;;;;;;1497015;39;20039;-60
2021/06/16 05:59:23;;;;;;;10.75;6.28;;;;;;;;;;1497211;39;20075;-61
2021/06/16 06:00:25;;;;;;;8.90;6.40;;;;;;;;;;1497132;39;20028;-61
2021/06/16 06:01:27;;;;;;;8.23;6.00;;;;;;;;;;1497108;39;20027;-61
2021/06/16 06:02:28;;;;;;;9.15;5.90;;;;;;;;;;1496937;39;20023;-60
2021/06/16 06:03:29;;;;;;;11.38;6.20;;;;;;;;;;1497247;39;20031;-61
2021/06/16 06:04:30;;;;;;;8.77;6.45;;;;;;;;;;1497086;39;20027;-60
2021/06/16 06:05:32;;;;;;;10.65;6.30;;;;;;;;;;1496930;39;20050;-60
2021/06/16 06:06:33;;;;;;;11.57;6.45;;;;;;;;;;1496892;39;20032;-61
2021/06/16 06:07:35;;;;;;;9.18;6.28;;;;;;;;;;1497106;39;20027;-62
2021/06/16 06:08:38;;;;;;;9.95;6.80;;;;;;;;;;1496894;39;20027;-61
2021/06/16 06:09:41;;;;;;;8.63;6.75;;;;;;;;;;1496966;39;20110;-60
2021/06/16 06:10:41;;;;;;;10.07;6.20;;;;;;;;;;1497082;39;20027;-61
2021/06/16 06:11:43;;;;;;;8.27;6.43;;;;;;;;;;1496897;39;20027;-62